Time;durP1;ratioP1;P1;durP2;ratioP2;P2;SDS_P1;SDS_P2;PMS_P1;PMS_P2;Temp;Humidity;BMP_temperature;BMP_pressure;BME280_temperature;BME280_humidity;BME280_pressure;Samples;Min_cycle;Max_cycle;Signal;HPM_P1;HPM_P2
2022/01/27 00:02:27;;;;;;;11.82;7.75;;;7.00;99.90;;;;;;5055093;28;20110;-59
2022/01/27 00:07:32;;;;;;;12.18;8.00;;;7.00;99.90;;;;;;5048023;28;20092;-59
2022/01/27 00:12:38;;;;;;;11.65;7.75;;;7.00;99.90;;;;;;5071622;28;20052;-59
2022/01/27 00:15:10;;;;;;;15.55;8.95;;;7.10;99.90;;;;;;5064669;28;20080;-58
2022/01/27 00:17:47;;;;;;;10.67;7.50;;;7.00;99.90;;;;;;5053950;28;20198;-59
2022/01/27 00:20:14;;;;;;;8.98;6.72;;;7.00;99.90;;;;;;5061841;28;20052;-58
2022/01/27 00:22:42;;;;;;;9.15;6.68;;;7.00;99.90;;;;;;5063752;28;20330;-59
2022/01/27 00:25:10;;;;;;;10.68;7.72;;;7.10;99.90;;;;;;5052004;28;20535;-58
2022/01/27 00:27:36;;;;;;;10.98;7.18;;;7.10;99.90;;;;;;5047585;28;20124;-59
2022/01/27 00:30:05;;;;;;;12.50;7.75;;;7.10;99.90;;;;;;5054962;28;20503;-60
2022/01/27 00:32:32;;;;;;;9.93;7.68;;;7.10;99.90;;;;;;5053255;28;20574;-59
2022/01/27 00:34:59;;;;;;;10.25;7.28;;;7.10;99.90;;;;;;5055069;28;20044;-59
2022/01/27 00:37:26;;;;;;;11.45;7.57;;;7.10;99.90;;;;;;5058150;28;20480;-59
2022/01/27 00:39:53;;;;;;;12.15;6.82;;;7.10;99.90;;;;;;5046325;28;20519;-59
2022/01/27 00:42:20;;;;;;;13.20;7.82;;;7.10;99.90;;;;;;5058260;28;20389;-59
2022/01/27 00:44:47;;;;;;;13.15;6.55;;;7.10;99.90;;;;;;5058469;28;20442;-59
2022/01/27 00:47:13;;;;;;;12.07;8.43;;;7.10;99.90;;;;;;5064868;28;20049;-58
2022/01/27 00:49:41;;;;;;;13.13;8.05;;;7.10;99.90;;;;;;5046498;28;20460;-58
2022/01/27 00:52:11;;;;;;;11.35;7.65;;;7.10;99.90;;;;;;5052867;28;20072;-58
2022/01/27 00:54:38;;;;;;;12.38;8.25;;;7.10;99.90;;;;;;5056205;28;20133;-58
2022/01/27 00:57:38;;;;;;;13.27;8.05;;;7.10;99.90;;;;;;5063752;28;20080;-58
2022/01/27 00:59:59;;;;;;;12.45;8.60;;;7.10;99.90;;;;;;5064829;28;20088;-60
2022/01/27 01:02:39;;;;;;;12.07;8.30;;;7.20;99.90;;;;;;5059216;28;20450;-60
2022/01/27 01:07:37;;;;;;;12.55;8.98;;;7.10;99.90;;;;;;5058297;28;20414;-60
2022/01/27 01:15:38;;;;;;;11.48;9.00;;;7.10;99.90;;;;;;5063237;28;20083;-59
2022/01/27 01:21:25;;;;;;;10.20;7.72;;;7.10;99.90;;;;;;5048552;28;20519;-59
2022/01/27 01:32:08;;;;;;;10.60;7.22;;;7.00;99.90;;;;;;5056324;28;20044;-59
2022/01/27 01:34:42;;;;;;;9.85;7.63;;;7.00;99.90;;;;;;5059255;28;20088;-61
2022/01/27 01:37:09;;;;;;;10.35;7.88;;;7.00;99.90;;;;;;5062880;28;20076;-59
2022/01/27 01:39:36;;;;;;;12.60;8.75;;;7.00;99.90;;;;;;5044804;28;20543;-59
2022/01/27 01:42:06;;;;;;;11.75;7.95;;;7.00;99.90;;;;;;5057462;28;20514;-60
2022/01/27 01:44:32;;;;;;;10.77;7.50;;;7.00;99.90;;;;;;5057102;28;20045;-59
2022/01/27 01:46:59;;;;;;;11.35;7.93;;;7.00;99.90;;;;;;5043952;28;20045;-59
2022/01/27 01:49:26;;;;;;;12.88;8.57;;;6.90;99.90;;;;;;5043751;28;20045;-59
2022/01/27 01:52:04;;;;;;;11.30;8.52;;;6.90;99.90;;;;;;5054980;28;20127;-59
2022/01/27 01:54:30;;;;;;;13.52;8.32;;;6.90;99.90;;;;;;5053802;28;20131;-59
2022/01/27 01:56:58;;;;;;;11.40;8.57;;;6.90;99.90;;;;;;5054251;28;20049;-59
2022/01/27 01:59:24;;;;;;;11.02;8.25;;;6.90;99.90;;;;;;5052526;28;20123;-59
2022/01/27 02:01:51;;;;;;;11.00;7.32;;;6.90;99.90;;;;;;5051587;28;20498;-60
2022/01/27 02:04:18;;;;;;;12.38;9.13;;;6.90;99.90;;;;;;5063305;28;20079;-59
2022/01/27 02:06:56;;;;;;;10.95;8.23;;;6.90;99.90;;;;;;5041996;28;20041;-59
2022/01/27 02:09:32;;;;;;;9.57;7.78;;;6.90;99.90;;;;;;5044505;28;20049;-59
2022/01/27 02:17:59;;;;;;;13.20;8.38;;;6.90;99.90;;;;;;5052893;28;20139;-59
2022/01/27 02:20:29;;;;;;;10.90;7.43;;;6.90;99.90;;;;;;5044126;28;20078;-59
2022/01/27 02:22:55;;;;;;;8.88;7.28;;;6.90;99.90;;;;;;5058802;28;20495;-59
2022/01/27 02:25:22;;;;;;;10.98;7.78;;;6.90;99.90;;;;;;5054099;28;20358;-60
2022/01/27 02:27:56;;;;;;;11.18;7.65;;;6.90;99.90;;;;;;5061450;28;20489;-60
2022/01/27 02:30:23;;;;;;;11.07;7.57;;;7.00;99.90;;;;;;5055498;28;20508;-59
2022/01/27 02:32:52;;;;;;;13.25;8.05;;;7.10;99.90;;;;;;5052485;28;20040;-59
2022/01/27 02:35:21;;;;;;;9.25;7.35;;;7.10;99.90;;;;;;5059651;28;20080;-59
2022/01/27 02:37:47;;;;;;;8.95;7.22;;;7.20;99.90;;;;;;5043482;28;20727;-59
2022/01/27 02:40:36;;;;;;;10.77;6.70;;;7.20;99.90;;;;;;5043713;28;20139;-58
2022/01/27 02:43:03;;;;;;;9.70;6.93;;;7.30;99.90;;;;;;5057276;28;20156;-59
2022/01/27 02:45:40;;;;;;;8.65;6.57;;;7.30;99.90;;;;;;5062848;28;20048;-59
2022/01/27 02:48:07;;;;;;;9.57;6.72;;;7.30;99.90;;;;;;5061991;28;20044;-60
2022/01/27 02:50:34;;;;;;;8.65;5.63;;;7.30;99.90;;;;;;5062632;28;20101;-59
2022/01/27 02:53:01;;;;;;;9.35;6.45;;;7.30;99.90;;;;;;5059983;28;20059;-59
2022/01/27 02:55:27;;;;;;;7.85;6.43;;;7.30;99.90;;;;;;5063862;28;20087;-58
2022/01/27 02:57:57;;;;;;;9.02;6.05;;;7.30;99.90;;;;;;5042546;28;20045;-59
2022/01/27 03:00:26;;;;;;;7.95;5.93;;;7.30;99.90;;;;;;5043701;28;20049;-59
2022/01/27 03:02:53;;;;;;;9.88;6.53;;;7.30;99.90;;;;;;5059434;28;20076;-60
2022/01/27 03:05:20;;;;;;;9.43;6.40;;;7.30;99.90;;;;;;5045270;28;20151;-60
2022/01/27 03:07:48;;;;;;;8.18;6.22;;;7.30;99.90;;;;;;5052290;28;20044;-59
2022/01/27 03:10:16;;;;;;;9.85;6.03;;;7.30;99.90;;;;;;5062174;28;20487;-59
2022/01/27 03:12:43;;;;;;;8.57;6.20;;;7.30;99.90;;;;;;5063101;28;20079;-59
2022/01/27 03:15:11;;;;;;;9.88;6.22;;;7.40;99.90;;;;;;5057580;28;20105;-59
2022/01/27 03:17:39;;;;;;;9.75;6.28;;;7.40;99.90;;;;;;5044286;28;20073;-59
2022/01/27 03:20:07;;;;;;;8.65;5.78;;;7.40;99.90;;;;;;5042129;28;20079;-59
2022/01/27 03:22:34;;;;;;;8.10;6.10;;;7.50;99.90;;;;;;5054750;28;20049;-59
2022/01/27 03:25:02;;;;;;;11.45;6.55;;;7.50;99.90;;;;;;5059297;28;20044;-59
2022/01/27 03:27:29;;;;;;;8.15;6.50;;;7.50;99.90;;;;;;5063521;28;20128;-58
2022/01/27 03:29:56;;;;;;;11.43;6.72;;;7.60;99.90;;;;;;5047484;28;20056;-58
2022/01/27 03:32:25;;;;;;;9.50;6.13;;;7.60;99.90;;;;;;5052886;28;20102;-58
2022/01/27 03:34:52;;;;;;;8.90;6.30;;;7.60;99.90;;;;;;5054423;28;20326;-58
2022/01/27 03:37:19;;;;;;;7.60;5.78;;;7.60;99.90;;;;;;5059906;28;20062;-58
2022/01/27 03:39:45;;;;;;;7.53;6.25;;;7.60;99.90;;;;;;5059534;28;20076;-57
2022/01/27 03:42:12;;;;;;;7.10;5.70;;;7.70;99.90;;;;;;5047245;28;20571;-58
2022/01/27 03:44:39;;;;;;;7.35;5.53;;;7.70;99.90;;;;;;5061240;28;20102;-58
2022/01/27 03:47:06;;;;;;;8.60;5.75;;;7.70;99.90;;;;;;5054621;28;20049;-58
2022/01/27 03:49:33;;;;;;;9.45;5.72;;;7.70;99.90;;;;;;5057348;28;20057;-58
2022/01/27 03:52:01;;;;;;;9.60;5.60;;;7.70;99.90;;;;;;5051793;28;20135;-56
2022/01/27 03:54:30;;;;;;;10.90;6.03;;;7.80;99.90;;;;;;5061956;28;20116;-58
2022/01/27 03:56:58;;;;;;;10.45;5.57;;;7.80;99.90;;;;;;5045848;28;20053;-58
2022/01/27 03:59:26;;;;;;;6.38;5.28;;;7.70;99.90;;;;;;5045963;28;20249;-58
2022/01/27 04:01:54;;;;;;;8.63;5.28;;;7.80;99.90;;;;;;5064567;28;20123;-58
2022/01/27 04:04:21;;;;;;;8.18;5.22;;;7.80;99.90;;;;;;5066571;28;20580;-58
2022/01/27 04:06:51;;;;;;;6.55;4.97;;;7.90;99.90;;;;;;5060665;28;20115;-59
2022/01/27 04:09:18;;;;;;;8.23;5.53;;;7.90;99.90;;;;;;5062759;28;20041;-58
2022/01/27 04:11:46;;;;;;;8.77;5.43;;;7.90;99.90;;;;;;5061422;28;20420;-58
2022/01/27 04:14:12;;;;;;;6.13;4.50;;;7.90;99.90;;;;;;5063726;28;20056;-58
2022/01/27 04:16:39;;;;;;;6.93;5.18;;;7.90;99.90;;;;;;5062601;28;20075;-58
2022/01/27 04:19:06;;;;;;;11.73;6.03;;;7.90;99.90;;;;;;5052317;28;20124;-58
2022/01/27 04:21:33;;;;;;;8.27;5.18;;;7.90;99.90;;;;;;5050453;28;20139;-58
2022/01/27 04:23:59;;;;;;;7.95;4.65;;;8.00;99.90;;;;;;5066063;28;20429;-58
2022/01/27 04:26:35;;;;;;;7.53;4.60;;;8.00;99.90;;;;;;5058627;28;20120;-58
2022/01/27 04:29:02;;;;;;;5.13;4.13;;;8.00;99.90;;;;;;5053867;28;20750;-59
2022/01/27 04:31:30;;;;;;;6.93;4.72;;;8.00;99.90;;;;;;5065217;28;20171;-57
2022/01/27 04:33:57;;;;;;;5.10;4.15;;;8.10;99.90;;;;;;5054929;28;20049;-58
2022/01/27 04:36:29;;;;;;;7.80;5.15;;;8.00;99.90;;;;;;5055678;28;20080;-59
2022/01/27 04:41:50;;;;;;;7.28;4.90;;;8.10;99.90;;;;;;5061293;28;20080;-58
2022/01/27 04:47:03;;;;;;;6.68;4.05;;;8.10;99.90;;;;;;5050579;28;20132;-58
2022/01/27 04:49:29;;;;;;;5.93;4.20;;;8.10;99.90;;;;;;5060473;28;20080;-58
2022/01/27 04:51:56;;;;;;;5.53;4.10;;;8.10;99.90;;;;;;5063106;28;20407;-58
2022/01/27 04:54:32;;;;;;;5.93;3.88;;;8.10;99.90;;;;;;5046884;28;20125;-58
2022/01/27 04:57:01;;;;;;;6.22;4.20;;;8.20;99.90;;;;;;5053962;28;20091;-58
2022/01/27 04:59:33;;;;;;;5.50;4.35;;;8.20;99.90;;;;;;5062946;28;20223;-58
2022/01/27 05:02:05;;;;;;;7.70;4.40;;;8.20;99.90;;;;;;5058963;28;20172;-59
2022/01/27 05:04:37;;;;;;;6.00;4.03;;;8.20;99.90;;;;;;5065334;28;20418;-58
2022/01/27 05:07:04;;;;;;;6.63;4.30;;;8.20;99.90;;;;;;5058277;28;20348;-58
2022/01/27 05:09:31;;;;;;;5.80;3.80;;;8.20;99.90;;;;;;5051152;28;20678;-58
2022/01/27 05:12:10;;;;;;;5.10;3.88;;;8.20;99.90;;;;;;5057817;28;20551;-58
2022/01/27 05:14:37;;;;;;;5.20;3.15;;;8.20;99.90;;;;;;5043177;28;20139;-58
2022/01/27 05:17:03;;;;;;;5.88;3.85;;;8.20;99.90;;;;;;5045607;28;20079;-58
2022/01/27 05:19:30;;;;;;;4.18;3.30;;;8.30;99.90;;;;;;5057756;28;20097;-58
2022/01/27 05:21:57;;;;;;;5.90;3.47;;;8.30;99.90;;;;;;5065795;28;20049;-59
2022/01/27 05:24:24;;;;;;;4.45;3.60;;;8.30;99.90;;;;;;5048765;28;20106;-59
2022/01/27 05:26:50;;;;;;;5.30;3.70;;;8.30;99.90;;;;;;5045612;28;20120;-58
2022/01/27 05:29:17;;;;;;;5.13;3.50;;;8.30;99.90;;;;;;5059654;28;20076;-59
2022/01/27 05:31:44;;;;;;;4.60;3.22;;;8.30;99.90;;;;;;5049871;28;20044;-59
2022/01/27 05:34:11;;;;;;;5.88;3.60;;;8.30;99.90;;;;;;5049156;28;20052;-58
2022/01/27 05:36:37;;;;;;;8.77;4.05;;;8.30;99.90;;;;;;5045455;28;20052;-58
2022/01/27 05:39:04;;;;;;;5.38;3.55;;;8.30;99.90;;;;;;5060939;28;20061;-59
2022/01/27 05:41:31;;;;;;;4.75;3.22;;;8.30;99.90;;;;;;5052373;28;20151;-59
2022/01/27 05:43:58;;;;;;;6.70;3.88;;;8.40;99.90;;;;;;5058113;28;20064;-58
2022/01/27 05:46:25;;;;;;;7.78;3.58;;;8.40;99.90;;;;;;5060611;28;20037;-58
2022/01/27 05:48:52;;;;;;;5.68;3.05;;;8.40;99.90;;;;;;5064470;28;20056;-59
2022/01/27 05:51:19;;;;;;;5.60;3.22;;;8.40;99.90;;;;;;5064933;28;20102;-58
2022/01/27 05:53:46;;;;;;;4.80;3.15;;;8.40;99.90;;;;;;5064035;28;20141;-59
2022/01/27 05:56:13;;;;;;;9.27;3.08;;;8.40;99.90;;;;;;5062802;28;20091;-58
2022/01/27 05:58:40;;;;;;;5.60;3.95;;;8.40;99.90;;;;;;5056943;28;20154;-58
2022/01/27 06:01:06;;;;;;;7.07;3.63;;;8.40;99.90;;;;;;5052977;28;20106;-58
2022/01/27 06:03:33;;;;;;;5.65;3.33;;;8.40;99.90;;;;;;5050682;28;20096;-59
2022/01/27 06:06:00;;;;;;;7.95;3.80;;;8.40;99.90;;;;;;5054720;28;20075;-58
2022/01/27 06:08:29;;;;;;;6.25;3.97;;;8.40;99.90;;;;;;5060318;28;20091;-58
2022/01/27 06:10:57;;;;;;;5.65;3.70;;;8.40;99.90;;;;;;5054353;28;20048;-59
2022/01/27 06:13:23;;;;;;;6.47;3.88;;;8.40;99.90;;;;;;5060729;28;20566;-59
2022/01/27 06:15:50;;;;;;;6.68;3.65;;;8.40;99.90;;;;;;5048485;28;20137;-58
2022/01/27 06:18:17;;;;;;;5.15;3.88;;;8.40;99.90;;;;;;5042594;28;20051;-59
2022/01/27 06:20:45;;;;;;;5.47;3.78;;;8.30;99.90;;;;;;5041446;28;20053;-59
2022/01/27 06:23:12;;;;;;;6.10;3.78;;;8.40;99.90;;;;;;5060878;28;20109;-59
2022/01/27 06:25:41;;;;;;;4.82;3.63;;;8.40;99.90;;;;;;5062240;28;20266;-59
2022/01/27 06:28:08;;;;;;;4.93;3.30;;;8.40;99.90;;;;;;5054861;28;20095;-59
2022/01/27 06:30:35;;;;;;;7.78;4.10;;;8.40;99.90;;;;;;5063431;28;20045;-59
2022/01/27 06:33:04;;;;;;;5.15;3.00;;;8.40;99.90;;;;;;5059421;28;20104;-59
2022/01/27 06:35:31;;;;;;;6.53;3.83;;;8.40;99.90;;;;;;5055785;28;20080;-58
2022/01/27 06:37:58;;;;;;;7.50;3.97;;;8.50;99.90;;;;;;5060834;28;20123;-58
2022/01/27 06:40:25;;;;;;;6.78;4.03;;;8.40;99.90;;;;;;5071313;28;20095;-59
2022/01/27 06:42:52;;;;;;;5.00;3.10;;;8.40;99.90;;;;;;5060622;28;20056;-59
2022/01/27 06:45:18;;;;;;;5.13;3.45;;;8.40;99.90;;;;;;5060918;28;20197;-58
2022/01/27 06:47:45;;;;;;;6.50;4.75;;;8.40;99.90;;;;;;5071473;28;20039;-58
2022/01/27 06:50:12;;;;;;;8.05;4.22;;;8.40;99.90;;;;;;5065609;28;20056;-58
2022/01/27 06:52:41;;;;;;;7.45;3.95;;;8.40;99.90;;;;;;5062008;28;20079;-58
2022/01/27 06:55:11;;;;;;;4.05;2.90;;;8.40;99.90;;;;;;5070386;28;20047;-58
2022/01/27 06:57:38;;;;;;;6.18;3.55;;;8.40;99.90;;;;;;5067692;28;20048;-58
2022/01/27 07:00:09;;;;;;;7.50;3.83;;;8.40;99.90;;;;;;5062803;28;20129;-59
2022/01/27 07:02:36;;;;;;;5.50;4.00;;;8.40;99.90;;;;;;5067074;28;20656;-58
2022/01/27 07:05:03;;;;;;;6.20;3.75;;;8.40;99.90;;;;;;5067809;28;20079;-60
2022/01/27 07:07:30;;;;;;;6.53;3.83;;;8.40;99.90;;;;;;5061398;28;20127;-60
2022/01/27 07:09:57;;;;;;;5.60;3.53;;;8.40;99.90;;;;;;5067513;28;20088;-60
2022/01/27 07:12:23;;;;;;;5.47;3.40;;;8.40;99.90;;;;;;5060146;28;20052;-59
2022/01/27 07:14:51;;;;;;;6.88;3.65;;;8.40;99.90;;;;;;5057042;28;20056;-59
2022/01/27 07:17:19;;;;;;;7.25;4.05;;;8.40;99.90;;;;;;5066276;28;20130;-59
2022/01/27 07:19:46;;;;;;;5.25;3.42;;;8.50;99.90;;;;;;5064967;28;20628;-58
2022/01/27 07:22:13;;;;;;;5.85;3.85;;;8.40;99.90;;;;;;5049600;28;20523;-58
2022/01/27 07:24:40;;;;;;;4.95;3.17;;;8.50;99.90;;;;;;5057563;28;20147;-59
2022/01/27 07:27:07;;;;;;;6.05;4.07;;;8.50;99.90;;;;;;5059154;28;20117;-58
2022/01/27 07:29:34;;;;;;;5.13;3.60;;;8.50;99.90;;;;;;5056678;28;20471;-56
2022/01/27 07:32:01;;;;;;;6.95;4.18;;;8.50;99.90;;;;;;5060625;28;20162;-58
2022/01/27 07:34:28;;;;;;;6.05;3.35;;;8.50;99.90;;;;;;5062127;28;20067;-58
2022/01/27 07:36:59;;;;;;;5.13;3.30;;;8.50;99.90;;;;;;5061787;28;20210;-59
2022/01/27 07:39:26;;;;;;;5.78;3.72;;;8.50;99.90;;;;;;5061907;28;20076;-58
2022/01/27 07:41:52;;;;;;;5.78;3.35;;;8.50;99.90;;;;;;5062362;28;20095;-58
2022/01/27 07:44:19;;;;;;;5.47;3.95;;;8.50;99.90;;;;;;5059835;28;20464;-58
2022/01/27 07:46:46;;;;;;;5.93;3.35;;;8.50;99.90;;;;;;5062114;28;20460;-57
2022/01/27 07:49:13;;;;;;;5.45;3.42;;;8.50;99.90;;;;;;5061295;28;20100;-59
2022/01/27 07:51:39;;;;;;;4.45;3.25;;;8.50;99.90;;;;;;5061848;28;20144;-59
2022/01/27 07:54:07;;;;;;;3.78;2.90;;;8.50;99.90;;;;;;5061774;28;20124;-58
2022/01/27 07:56:34;;;;;;;8.00;4.07;;;8.60;99.90;;;;;;5062662;28;20087;-58
2022/01/27 07:59:02;;;;;;;5.05;3.25;;;8.60;99.90;;;;;;5059370;28;20110;-58
2022/01/27 08:01:29;;;;;;;4.85;3.55;;;8.60;99.90;;;;;;5060517;28;20111;-58
2022/01/27 08:03:56;;;;;;;6.50;4.28;;;8.60;99.90;;;;;;5061223;28;20532;-58
2022/01/27 08:06:23;;;;;;;5.70;3.58;;;8.60;99.90;;;;;;5062213;28;20056;-57
2022/01/27 08:08:50;;;;;;;3.75;3.00;;;8.60;99.90;;;;;;5061675;28;20311;-58
2022/01/27 08:11:18;;;;;;;4.47;3.30;;;8.70;99.90;;;;;;5062080;28;20086;-58
2022/01/27 08:13:45;;;;;;;5.03;3.78;;;8.70;99.90;;;;;;5057751;28;20131;-58
2022/01/27 08:16:12;;;;;;;5.22;3.03;;;8.70;99.90;;;;;;5060857;28;20505;-58
2022/01/27 08:18:46;;;;;;;4.95;3.30;;;8.70;99.90;;;;;;5059988;28;20358;-58
2022/01/27 08:21:13;;;;;;;5.93;3.00;;;8.70;99.90;;;;;;5060022;28;20079;-59
2022/01/27 08:23:42;;;;;;;6.40;3.90;;;8.70;99.90;;;;;;5068832;28;20049;-59
2022/01/27 08:26:12;;;;;;;6.22;3.67;;;8.70;99.90;;;;;;5065133;28;20160;-59
2022/01/27 08:31:33;;;;;;;5.30;3.92;;;8.70;99.90;;;;;;5040059;28;20082;-58
2022/01/27 08:34:03;;;;;;;5.30;3.35;;;8.80;99.90;;;;;;5052651;28;20052;-58
2022/01/27 08:36:31;;;;;;;4.35;3.17;;;8.80;99.90;;;;;;5054186;28;20155;-58
2022/01/27 08:38:58;;;;;;;4.35;3.35;;;8.80;99.90;;;;;;5070732;28;20604;-58
2022/01/27 08:41:26;;;;;;;4.07;2.88;;;8.80;99.90;;;;;;5071140;28;20079;-58
2022/01/27 08:43:54;;;;;;;4.53;3.30;;;8.80;99.90;;;;;;5068182;28;20190;-55
2022/01/27 08:46:26;;;;;;;5.03;3.28;;;8.90;99.90;;;;;;5068822;28;20109;-58
2022/01/27 08:48:52;;;;;;;4.50;3.25;;;8.90;99.90;;;;;;5069748;28;20143;-58
2022/01/27 08:51:21;;;;;;;4.13;3.00;;;8.90;99.90;;;;;;5077336;28;20048;-58
2022/01/27 08:53:49;;;;;;;4.00;3.00;;;8.90;99.90;;;;;;5062310;28;20087;-55
2022/01/27 08:56:19;;;;;;;3.55;2.50;;;8.90;99.90;;;;;;5060779;28;20061;-58
2022/01/27 08:58:46;;;;;;;5.22;3.78;;;9.00;99.90;;;;;;5066267;28;20044;-56
2022/01/27 09:01:13;;;;;;;3.58;3.10;;;9.00;99.90;;;;;;5070239;28;20040;-59
2022/01/27 09:03:39;;;;;;;6.93;3.00;;;8.90;99.90;;;;;;5065086;28;20128;-58
2022/01/27 09:06:07;;;;;;;3.88;2.53;;;9.00;99.90;;;;;;5071106;28;20052;-59
2022/01/27 09:08:40;;;;;;;5.85;3.75;;;9.00;99.90;;;;;;5080075;28;20055;-58
2022/01/27 09:11:07;;;;;;;4.32;2.70;;;9.00;99.90;;;;;;5072808;28;20126;-58
2022/01/27 09:13:34;;;;;;;3.53;2.42;;;9.10;99.90;;;;;;5064365;28;20138;-58
2022/01/27 09:16:01;;;;;;;3.70;2.33;;;9.10;99.90;;;;;;5078115;28;20058;-58
2022/01/27 09:18:28;;;;;;;3.83;2.70;;;9.10;99.90;;;;;;5065368;28;20094;-58
2022/01/27 09:20:57;;;;;;;3.22;2.88;;;9.20;99.90;;;;;;5053435;28;20496;-58
2022/01/27 09:23:23;;;;;;;4.43;2.60;;;9.20;99.90;;;;;;5061239;28;20084;-58
2022/01/27 09:25:55;;;;;;;3.55;2.55;;;9.20;99.90;;;;;;5059438;28;20871;-59
2022/01/27 09:28:22;;;;;;;3.55;2.50;;;9.20;99.90;;;;;;5070807;28;20066;-58
2022/01/27 09:30:48;;;;;;;7.20;3.22;;;9.20;99.90;;;;;;5071476;28;20105;-58
2022/01/27 09:33:15;;;;;;;4.75;2.92;;;9.20;99.90;;;;;;5069629;28;20078;-58
2022/01/27 09:35:42;;;;;;;3.55;2.25;;;9.20;99.90;;;;;;5052173;28;20359;-58
2022/01/27 09:38:09;;;;;;;3.58;2.47;;;9.30;99.90;;;;;;5055334;28;20479;-59
2022/01/27 09:40:36;;;;;;;3.92;2.60;;;9.30;99.90;;;;;;5056262;28;20044;-59
2022/01/27 09:43:04;;;;;;;4.50;2.60;;;9.30;99.90;;;;;;5059020;28;20739;-58
2022/01/27 09:45:36;;;;;;;4.53;2.80;;;9.30;99.90;;;;;;5055400;28;20126;-59
2022/01/27 09:48:12;;;;;;;3.53;2.40;;;9.30;99.90;;;;;;5070718;28;20048;-58
2022/01/27 09:53:10;;;;;;;3.83;2.72;;;9.30;99.90;;;;;;5068191;28;20040;-58
2022/01/27 09:55:37;;;;;;;3.38;2.65;;;9.30;99.90;;;;;;5065832;28;20047;-59
2022/01/27 09:58:06;;;;;;;5.80;2.90;;;9.30;99.90;;;;;;5072506;28;20102;-59
2022/01/27 10:00:33;;;;;;;5.07;2.47;;;9.30;99.90;;;;;;5068439;28;20126;-58
2022/01/27 10:03:16;;;;;;;4.70;2.65;;;9.40;99.90;;;;;;5065942;28;20931;-58
2022/01/27 10:05:43;;;;;;;5.07;3.20;;;9.40;99.90;;;;;;5075072;28;20123;-58
2022/01/27 10:08:17;;;;;;;3.95;2.47;;;9.40;99.90;;;;;;5071163;28;20531;-58
2022/01/27 10:10:45;;;;;;;4.80;2.70;;;9.40;99.90;;;;;;5065457;28;20097;-57
2022/01/27 10:13:31;;;;;;;5.72;2.60;;;9.50;99.90;;;;;;5068352;28;20043;-58
2022/01/27 10:15:58;;;;;;;5.05;2.55;;;9.50;99.90;;;;;;5066097;28;20056;-58
2022/01/27 10:18:26;;;;;;;4.57;2.72;;;9.50;99.90;;;;;;5067546;28;20076;-57
2022/01/27 10:21:01;;;;;;;3.38;2.45;;;9.50;99.90;;;;;;5059807;28;20519;-58
2022/01/27 10:23:32;;;;;;;4.18;2.92;;;9.50;99.90;;;;;;5063945;28;20076;-58
2022/01/27 10:26:13;;;;;;;5.13;3.30;;;9.60;99.90;;;;;;5059953;28;20117;-58
2022/01/27 10:28:48;;;;;;;4.13;2.85;;;9.60;99.90;;;;;;5057427;28;20106;-58
2022/01/27 10:31:19;;;;;;;4.40;2.63;;;9.60;99.90;;;;;;5059520;28;20514;-58
2022/01/27 10:33:46;;;;;;;3.67;2.67;;;9.60;99.90;;;;;;5058404;28;20048;-58
2022/01/27 10:36:40;;;;;;;5.35;2.65;;;9.60;99.90;;;;;;5059099;28;20160;-58
2022/01/27 10:39:11;;;;;;;4.00;2.85;;;9.70;99.90;;;;;;5058952;28;20080;-58
2022/01/27 10:41:53;;;;;;;4.03;2.90;;;9.70;99.90;;;;;;5059076;28;20087;-58
2022/01/27 10:44:20;;;;;;;3.35;2.00;;;9.70;99.90;;;;;;5055551;28;20080;-58
2022/01/27 10:46:59;;;;;;;4.93;3.10;;;9.80;99.90;;;;;;5059799;28;20052;-58
2022/01/27 10:49:31;;;;;;;5.00;3.00;;;9.90;99.90;;;;;;5058670;28;20084;-58
2022/01/27 10:51:58;;;;;;;3.83;2.90;;;9.90;99.90;;;;;;5059795;28;20048;-58
2022/01/27 10:54:36;;;;;;;3.65;2.88;;;9.90;99.90;;;;;;5058641;28;20507;-58
2022/01/27 10:57:08;;;;;;;3.65;2.40;;;9.90;99.90;;;;;;5059849;28;20091;-59
2022/01/27 10:59:35;;;;;;;3.03;2.35;;;9.90;99.90;;;;;;5055955;28;20132;-58
2022/01/27 11:02:06;;;;;;;3.30;2.70;;;10.00;99.90;;;;;;5058707;28;20114;-59
2022/01/27 11:04:41;;;;;;;4.63;2.88;;;10.00;99.90;;;;;;5058473;28;20135;-59
2022/01/27 11:07:13;;;;;;;5.63;3.53;;;10.10;99.90;;;;;;5058821;28;20124;-59
2022/01/27 11:09:43;;;;;;;5.75;2.75;;;10.10;99.90;;;;;;5059118;28;20549;-60
2022/01/27 11:12:13;;;;;;;4.38;2.88;;;10.20;99.90;;;;;;5057697;28;20052;-58
2022/01/27 11:14:40;;;;;;;6.25;3.00;;;10.20;99.90;;;;;;5056278;28;20820;-59
2022/01/27 11:17:16;;;;;;;5.22;2.67;;;10.30;99.90;;;;;;5058618;28;20076;-58
2022/01/27 11:20:03;;;;;;;3.58;2.70;;;10.30;99.90;;;;;;5058289;28;20049;-59
2022/01/27 11:27:50;;;;;;;3.65;2.85;;;10.50;99.90;;;;;;5061730;28;20048;-58
2022/01/27 11:30:24;;;;;;;5.00;2.80;;;10.60;99.90;;;;;;5059191;28;20066;-58
2022/01/27 11:33:06;;;;;;;4.60;2.85;;;10.70;99.90;;;;;;5048524;28;20060;-59
2022/01/27 11:36:13;;;;;;;4.07;3.15;;;10.80;99.90;;;;;;5065903;28;20052;-59
2022/01/27 11:38:42;;;;;;;3.55;2.42;;;10.90;99.90;;;;;;5062024;28;20466;-59
2022/01/27 11:41:36;;;;;;;3.00;2.25;;;11.10;99.90;;;;;;5066303;28;20060;-58
2022/01/27 11:44:28;;;;;;;3.92;3.05;;;11.10;99.90;;;;;;5049750;28;20049;-59
2022/01/27 11:47:11;;;;;;;3.10;2.47;;;11.20;99.90;;;;;;5067513;28;20798;-58
2022/01/27 11:50:12;;;;;;;4.13;2.40;;;11.20;99.90;;;;;;5037705;28;20049;-57
2022/01/27 11:52:51;;;;;;;2.78;2.35;;;11.20;99.90;;;;;;5049723;28;20083;-57
2022/01/27 11:55:24;;;;;;;4.03;2.50;;;11.30;99.90;;;;;;5058668;28;20052;-58
2022/01/27 11:57:55;;;;;;;4.07;2.22;;;11.30;99.90;;;;;;5057867;28;20090;-58
2022/01/27 12:00:23;;;;;;;4.40;2.03;;;11.40;99.90;;;;;;5066383;28;20143;-58
2022/01/27 12:03:02;;;;;;;2.85;2.35;;;11.40;99.90;;;;;;5060056;28;20568;-57
2022/01/27 12:05:34;;;;;;;5.40;2.95;;;11.40;99.90;;;;;;5057357;28;20066;-58
2022/01/27 12:08:17;;;;;;;3.15;2.13;;;11.30;99.90;;;;;;5043772;28;20206;-58
2022/01/27 12:11:08;;;;;;;4.65;2.63;;;11.40;99.90;;;;;;5038159;28;20293;-58
2022/01/27 12:13:44;;;;;;;3.22;2.30;;;11.40;99.90;;;;;;5057497;28;20774;-58
2022/01/27 12:19:10;;;;;;;4.13;2.92;;;11.50;99.90;;;;;;5060163;28;20048;-60
2022/01/27 12:21:38;;;;;;;3.03;2.25;;;11.50;99.90;;;;;;5060764;28;20546;-57
2022/01/27 12:24:13;;;;;;;2.70;1.80;;;11.50;99.90;;;;;;5050714;28;20122;-57
2022/01/27 12:27:01;;;;;;;3.20;2.22;;;11.50;99.90;;;;;;5067204;28;20049;-57
2022/01/27 12:29:34;;;;;;;2.50;1.90;;;11.50;99.90;;;;;;5067977;28;20079;-58
2022/01/27 12:32:05;;;;;;;4.22;2.47;;;11.50;99.90;;;;;;5061555;28;20052;-58
2022/01/27 12:34:32;;;;;;;4.07;2.42;;;11.40;99.90;;;;;;5060114;28;20082;-59
2022/01/27 12:37:08;;;;;;;4.15;2.60;;;11.40;99.90;;;;;;5061455;28;20113;-58
2022/01/27 12:39:54;;;;;;;4.55;3.13;;;11.50;99.90;;;;;;5066612;28;20610;-58
2022/01/27 12:42:21;;;;;;;5.70;3.92;;;11.40;99.90;;;;;;5066318;28;20110;-58
2022/01/27 12:44:58;;;;;;;6.65;4.68;;;11.30;99.90;;;;;;5061805;28;20626;-58
2022/01/27 12:47:29;;;;;;;5.90;4.57;;;11.30;99.90;;;;;;5063062;28;20082;-58
2022/01/27 12:50:08;;;;;;;5.70;3.70;;;11.40;99.90;;;;;;5060464;28;20071;-58
2022/01/27 12:52:40;;;;;;;5.55;3.83;;;11.30;99.90;;;;;;5060724;28;20318;-58
2022/01/27 12:55:09;;;;;;;4.32;3.55;;;11.30;99.90;;;;;;5061032;28;20109;-57
2022/01/27 12:57:57;;;;;;;4.43;3.30;;;11.30;99.90;;;;;;5059793;28;20056;-59
2022/01/27 13:00:24;;;;;;;4.53;3.42;;;11.50;99.90;;;;;;5060183;28;20052;-58
2022/01/27 13:02:51;;;;;;;5.03;2.83;;;11.60;99.90;;;;;;5059740;28;20079;-58
2022/01/27 13:05:18;;;;;;;4.07;3.00;;;11.70;99.90;;;;;;5052542;28;20605;-58
2022/01/27 13:07:47;;;;;;;4.15;2.75;;;11.70;99.90;;;;;;5040993;28;20056;-58
2022/01/27 13:10:18;;;;;;;4.15;2.30;;;11.80;99.90;;;;;;5040781;28;20515;-58
2022/01/27 13:15:20;;;;;;;3.03;2.10;;;11.90;99.90;;;;;;5058995;28;20135;-58
2022/01/27 13:17:56;;;;;;;3.60;2.25;;;11.90;99.90;;;;;;5060348;28;20115;-58
2022/01/27 13:20:29;;;;;;;3.50;2.28;;;11.90;99.90;;;;;;5060405;28;20102;-59
2022/01/27 13:23:06;;;;;;;4.07;2.07;;;11.90;99.90;;;;;;5060034;28;20064;-59
2022/01/27 13:25:55;;;;;;;2.90;2.00;;;11.90;99.90;;;;;;5059056;28;20336;-58
2022/01/27 13:28:27;;;;;;;2.80;2.22;;;12.00;99.90;;;;;;5059268;28;20173;-59
2022/01/27 13:30:55;;;;;;;3.33;2.40;;;12.00;99.90;;;;;;5061914;28;20080;-58
2022/01/27 13:33:23;;;;;;;3.08;2.13;;;12.20;99.90;;;;;;5042075;28;20931;-59
2022/01/27 13:35:50;;;;;;;2.83;1.73;;;12.30;99.90;;;;;;5076324;28;20048;-58
2022/01/27 13:38:38;;;;;;;3.08;1.90;;;12.40;99.90;;;;;;5068658;28;20044;-59
2022/01/27 13:41:19;;;;;;;2.10;1.73;;;12.60;99.90;;;;;;5064282;28;20055;-58
2022/01/27 13:44:07;;;;;;;2.78;1.92;;;12.90;99.90;;;;;;5066592;28;20493;-58
2022/01/27 13:46:47;;;;;;;2.00;1.80;;;13.00;99.90;;;;;;5062790;28;20062;-59
2022/01/27 13:49:28;;;;;;;2.13;1.70;;;13.10;99.90;;;;;;5066657;28;20139;-58
2022/01/27 13:51:58;;;;;;;2.58;1.92;;;13.10;99.90;;;;;;5072653;28;20079;-59
2022/01/27 13:54:30;;;;;;;2.42;1.90;;;12.90;99.90;;;;;;5073400;28;20724;-58
2022/01/27 13:57:07;;;;;;;2.15;1.67;;;12.80;99.90;;;;;;5078169;28;20101;-59
2022/01/27 13:59:58;;;;;;;2.80;1.73;;;12.70;99.90;;;;;;5059723;28;20125;-59
2022/01/27 14:02:29;;;;;;;3.13;2.03;;;12.70;99.90;;;;;;5060817;28;21131;-58